sensor_id;sensor_type;location;lat;lon;timestamp;P1;durP1;ratioP1;P2;durP2;ratioP2
51814;SDS011;37874;53.158;6.766;2023-10-08T00:02:03;1.60;;;0.68;;
51814;SDS011;37874;53.158;6.766;2023-10-08T00:04:31;3.30;;;0.82;;
51814;SDS011;37874;53.158;6.766;2023-10-08T00:07:02;1.80;;;0.82;;
51814;SDS011;37874;53.158;6.766;2023-10-08T00:09:33;1.88;;;0.90;;
51814;SDS011;37874;53.158;6.766;2023-10-08T00:12:02;1.77;;;0.70;;
51814;SDS011;37874;53.158;6.766;2023-10-08T00:14:30;1.48;;;0.70;;
51814;SDS011;37874;53.158;6.766;2023-10-08T00:17:08;1.38;;;0.70;;
51814;SDS011;37874;53.158;6.766;2023-10-08T00:19:35;2.17;;;0.70;;
51814;SDS011;37874;53.158;6.766;2023-10-08T00:22:03;2.63;;;0.70;;
51814;SDS011;37874;53.158;6.766;2023-10-08T00:24:32;1.42;;;0.77;;
51814;SDS011;37874;53.158;6.766;2023-10-08T00:26:59;2.03;;;0.77;;
51814;SDS011;37874;53.158;6.766;2023-10-08T00:29:25;1.20;;;0.68;;
51814;SDS011;37874;53.158;6.766;2023-10-08T00:31:56;1.25;;;0.60;;
51814;SDS011;37874;53.158;6.766;2023-10-08T00:34:22;1.17;;;0.60;;
51814;SDS011;37874;53.158;6.766;2023-10-08T00:36:52;2.00;;;0.73;;
51814;SDS011;37874;53.158;6.766;2023-10-08T00:39:18;1.52;;;0.70;;
51814;SDS011;37874;53.158;6.766;2023-10-08T00:41:52;1.98;;;1.05;;
51814;SDS011;37874;53.158;6.766;2023-10-08T00:44:24;1.25;;;0.65;;
51814;SDS011;37874;53.158;6.766;2023-10-08T00:46:54;1.85;;;0.70;;
51814;SDS011;37874;53.158;6.766;2023-10-08T00:49:22;1.17;;;0.60;;
51814;SDS011;37874;53.158;6.766;2023-10-08T00:51:51;1.02;;;0.50;;
51814;SDS011;37874;53.158;6.766;2023-10-08T00:54:26;1.10;;;0.50;;
51814;SDS011;37874;53.158;6.766;2023-10-08T00:56:53;1.40;;;0.60;;
51814;SDS011;37874;53.158;6.766;2023-10-08T00:59:23;1.08;;;0.57;;
51814;SDS011;37874;53.158;6.766;2023-10-08T01:01:50;1.40;;;0.60;;
51814;SDS011;37874;53.158;6.766;2023-10-08T01:04:21;2.00;;;0.50;;
51814;SDS011;37874;53.158;6.766;2023-10-08T01:06:49;1.25;;;0.50;;
51814;SDS011;37874;53.158;6.766;2023-10-08T01:09:20;1.30;;;0.60;;
51814;SDS011;37874;53.158;6.766;2023-10-08T01:12:08;1.17;;;0.40;;
51814;SDS011;37874;53.158;6.766;2023-10-08T01:14:56;1.13;;;0.60;;
51814;SDS011;37874;53.158;6.766;2023-10-08T01:17:30;1.63;;;0.70;;
51814;SDS011;37874;53.158;6.766;2023-10-08T01:19:57;0.85;;;0.45;;
51814;SDS011;37874;53.158;6.766;2023-10-08T01:22:34;1.20;;;0.50;;
51814;SDS011;37874;53.158;6.766;2023-10-08T01:24:59;1.35;;;0.50;;
51814;SDS011;37874;53.158;6.766;2023-10-08T01:27:29;1.25;;;0.50;;
51814;SDS011;37874;53.158;6.766;2023-10-08T01:29:59;0.88;;;0.50;;
51814;SDS011;37874;53.158;6.766;2023-10-08T01:32:35;1.30;;;0.50;;
51814;SDS011;37874;53.158;6.766;2023-10-08T01:35:01;0.98;;;0.40;;
51814;SDS011;37874;53.158;6.766;2023-10-08T01:37:30;1.13;;;0.50;;
51814;SDS011;37874;53.158;6.766;2023-10-08T01:39:59;1.05;;;0.40;;
51814;SDS011;37874;53.158;6.766;2023-10-08T01:42:26;1.02;;;0.50;;
51814;SDS011;37874;53.158;6.766;2023-10-08T01:44:53;0.77;;;0.30;;
51814;SDS011;37874;53.158;6.766;2023-10-08T01:47:20;1.05;;;0.40;;
51814;SDS011;37874;53.158;6.766;2023-10-08T01:49:50;0.88;;;0.38;;
51814;SDS011;37874;53.158;6.766;2023-10-08T01:52:18;1.70;;;0.50;;
51814;SDS011;37874;53.158;6.766;2023-10-08T01:54:47;0.93;;;0.30;;
51814;SDS011;37874;53.158;6.766;2023-10-08T01:57:14;0.80;;;0.40;;
51814;SDS011;37874;53.158;6.766;2023-10-08T01:59:42;1.10;;;0.43;;
51814;SDS011;37874;53.158;6.766;2023-10-08T02:02:09;0.80;;;0.40;;
51814;SDS011;37874;53.158;6.766;2023-10-08T02:04:35;1.15;;;0.40;;
51814;SDS011;37874;53.158;6.766;2023-10-08T02:07:04;1.15;;;0.30;;
51814;SDS011;37874;53.158;6.766;2023-10-08T02:09:32;0.65;;;0.35;;
51814;SDS011;37874;53.158;6.766;2023-10-08T02:12:02;2.35;;;0.40;;
51814;SDS011;37874;53.158;6.766;2023-10-08T02:14:29;2.33;;;0.50;;
51814;SDS011;37874;53.158;6.766;2023-10-08T02:16:58;0.73;;;0.38;;
51814;SDS011;37874;53.158;6.766;2023-10-08T02:19:29;1.27;;;0.52;;
51814;SDS011;37874;53.158;6.766;2023-10-08T02:21:55;1.00;;;0.40;;
51814;SDS011;37874;53.158;6.766;2023-10-08T02:24:23;1.02;;;0.50;;
51814;SDS011;37874;53.158;6.766;2023-10-08T02:26:52;1.58;;;0.50;;
51814;SDS011;37874;53.158;6.766;2023-10-08T02:29:20;0.68;;;0.40;;
51814;SDS011;37874;53.158;6.766;2023-10-08T02:31:50;0.60;;;0.30;;
51814;SDS011;37874;53.158;6.766;2023-10-08T02:34:17;0.63;;;0.25;;
51814;SDS011;37874;53.158;6.766;2023-10-08T02:36:45;0.90;;;0.40;;
51814;SDS011;37874;53.158;6.766;2023-10-08T02:39:12;1.25;;;0.40;;
51814;SDS011;37874;53.158;6.766;2023-10-08T02:41:42;1.10;;;0.30;;
51814;SDS011;37874;53.158;6.766;2023-10-08T02:44:11;0.70;;;0.30;;
51814;SDS011;37874;53.158;6.766;2023-10-08T02:46:42;1.20;;;0.47;;
51814;SDS011;37874;53.158;6.766;2023-10-08T02:49:12;1.60;;;0.40;;
51814;SDS011;37874;53.158;6.766;2023-10-08T02:51:42;0.63;;;0.25;;
51814;SDS011;37874;53.158;6.766;2023-10-08T02:54:10;0.80;;;0.30;;
51814;SDS011;37874;53.158;6.766;2023-10-08T02:56:56;1.05;;;0.32;;
51814;SDS011;37874;53.158;6.766;2023-10-08T02:59:27;0.60;;;0.28;;
51814;SDS011;37874;53.158;6.766;2023-10-08T03:01:58;0.70;;;0.30;;
51814;SDS011;37874;53.158;6.766;2023-10-08T03:04:25;2.15;;;0.40;;
51814;SDS011;37874;53.158;6.766;2023-10-08T03:06:52;1.13;;;0.40;;
51814;SDS011;37874;53.158;6.766;2023-10-08T03:09:18;2.78;;;0.40;;
51814;SDS011;37874;53.158;6.766;2023-10-08T03:11:50;0.85;;;0.50;;
51814;SDS011;37874;53.158;6.766;2023-10-08T03:14:17;0.80;;;0.38;;
51814;SDS011;37874;53.158;6.766;2023-10-08T03:16:50;1.13;;;0.30;;
51814;SDS011;37874;53.158;6.766;2023-10-08T03:19:18;0.60;;;0.30;;
51814;SDS011;37874;53.158;6.766;2023-10-08T03:21:49;0.77;;;0.30;;
51814;SDS011;37874;53.158;6.766;2023-10-08T03:24:22;1.60;;;0.30;;
51814;SDS011;37874;53.158;6.766;2023-10-08T03:27:00;0.82;;;0.30;;
51814;SDS011;37874;53.158;6.766;2023-10-08T03:29:37;0.55;;;0.30;;
51814;SDS011;37874;53.158;6.766;2023-10-08T03:32:10;0.43;;;0.20;;
51814;SDS011;37874;53.158;6.766;2023-10-08T03:34:43;1.05;;;0.20;;
51814;SDS011;37874;53.158;6.766;2023-10-08T03:37:17;1.50;;;0.20;;
51814;SDS011;37874;53.158;6.766;2023-10-08T03:39:54;0.88;;;0.38;;
51814;SDS011;37874;53.158;6.766;2023-10-08T03:42:27;0.77;;;0.30;;
51814;SDS011;37874;53.158;6.766;2023-10-08T03:44:59;0.65;;;0.30;;
51814;SDS011;37874;53.158;6.766;2023-10-08T03:47:38;1.45;;;0.40;;
51814;SDS011;37874;53.158;6.766;2023-10-08T03:50:06;0.65;;;0.30;;
51814;SDS011;37874;53.158;6.766;2023-10-08T03:52:34;0.98;;;0.30;;
51814;SDS011;37874;53.158;6.766;2023-10-08T03:55:02;0.50;;;0.20;;
51814;SDS011;37874;53.158;6.766;2023-10-08T03:57:43;0.90;;;0.20;;
51814;SDS011;37874;53.158;6.766;2023-10-08T04:00:13;0.40;;;0.20;;
51814;SDS011;37874;53.158;6.766;2023-10-08T04:02:44;0.73;;;0.28;;
51814;SDS011;37874;53.158;6.766;2023-10-08T04:05:23;0.80;;;0.15;;
51814;SDS011;37874;53.158;6.766;2023-10-08T04:07:53;1.42;;;0.25;;
51814;SDS011;37874;53.158;6.766;2023-10-08T04:10:28;1.02;;;0.30;;
51814;SDS011;37874;53.158;6.766;2023-10-08T04:13:06;0.65;;;0.30;;
51814;SDS011;37874;53.158;6.766;2023-10-08T04:15:35;0.88;;;0.20;;
51814;SDS011;37874;53.158;6.766;2023-10-08T04:18:06;1.63;;;0.30;;
51814;SDS011;37874;53.158;6.766;2023-10-08T04:20:32;1.25;;;0.30;;
51814;SDS011;37874;53.158;6.766;2023-10-08T04:23:01;0.32;;;0.20;;
51814;SDS011;37874;53.158;6.766;2023-10-08T04:25:43;0.75;;;0.38;;
51814;SDS011;37874;53.158;6.766;2023-10-08T04:28:09;0.55;;;0.30;;
51814;SDS011;37874;53.158;6.766;2023-10-08T04:30:45;0.73;;;0.30;;
51814;SDS011;37874;53.158;6.766;2023-10-08T04:33:13;0.80;;;0.30;;
51814;SDS011;37874;53.158;6.766;2023-10-08T04:35:43;0.55;;;0.30;;
51814;SDS011;37874;53.158;6.766;2023-10-08T04:38:17;0.73;;;0.22;;
51814;SDS011;37874;53.158;6.766;2023-10-08T04:40:46;0.50;;;0.20;;
51814;SDS011;37874;53.158;6.766;2023-10-08T04:43:23;1.38;;;0.30;;
51814;SDS011;37874;53.158;6.766;2023-10-08T04:45:56;0.50;;;0.20;;
51814;SDS011;37874;53.158;6.766;2023-10-08T04:48:25;0.95;;;0.30;;
51814;SDS011;37874;53.158;6.766;2023-10-08T04:50:56;0.87;;;0.20;;
51814;SDS011;37874;53.158;6.766;2023-10-08T04:55:56;0.55;;;0.28;;
51814;SDS011;37874;53.158;6.766;2023-10-08T04:58:30;0.83;;;0.20;;
51814;SDS011;37874;53.158;6.766;2023-10-08T05:01:02;0.32;;;0.20;;
51814;SDS011;37874;53.158;6.766;2023-10-08T05:03:47;1.00;;;0.22;;
51814;SDS011;37874;53.158;6.766;2023-10-08T05:06:24;0.60;;;0.20;;
51814;SDS011;37874;53.158;6.766;2023-10-08T05:09:12;0.70;;;0.30;;
51814;SDS011;37874;53.158;6.766;2023-10-08T05:11:52;1.00;;;0.20;;
51814;SDS011;37874;53.158;6.766;2023-10-08T05:14:21;0.70;;;0.30;;
51814;SDS011;37874;53.158;6.766;2023-10-08T05:16:57;1.13;;;0.38;;
51814;SDS011;37874;53.158;6.766;2023-10-08T05:19:38;1.27;;;0.30;;
51814;SDS011;37874;53.158;6.766;2023-10-08T05:22:04;0.82;;;0.30;;
51814;SDS011;37874;53.158;6.766;2023-10-08T05:24:48;0.75;;;0.30;;
51814;SDS011;37874;53.158;6.766;2023-10-08T05:27:36;0.73;;;0.20;;
51814;SDS011;37874;53.158;6.766;2023-10-08T05:30:25;0.40;;;0.13;;
51814;SDS011;37874;53.158;6.766;2023-10-08T05:33:19;1.35;;;0.30;;
51814;SDS011;37874;53.158;6.766;2023-10-08T05:35:53;0.95;;;0.20;;
51814;SDS011;37874;53.158;6.766;2023-10-08T05:38:34;0.50;;;0.20;;
51814;SDS011;37874;53.158;6.766;2023-10-08T05:41:00;1.20;;;0.30;;
51814;SDS011;37874;53.158;6.766;2023-10-08T05:43:30;0.65;;;0.20;;
51814;SDS011;37874;53.158;6.766;2023-10-08T05:51:31;0.82;;;0.20;;
51814;SDS011;37874;53.158;6.766;2023-10-08T05:56:52;0.50;;;0.20;;
51814;SDS011;37874;53.158;6.766;2023-10-08T06:02:18;1.63;;;0.22;;
51814;SDS011;37874;53.158;6.766;2023-10-08T06:05:04;0.65;;;0.20;;
51814;SDS011;37874;53.158;6.766;2023-10-08T06:07:44;0.90;;;0.20;;
51814;SDS011;37874;53.158;6.766;2023-10-08T06:10:20;0.60;;;0.20;;
51814;SDS011;37874;53.158;6.766;2023-10-08T06:13:05;1.42;;;0.30;;
51814;SDS011;37874;53.158;6.766;2023-10-08T06:15:49;0.90;;;0.30;;
51814;SDS011;37874;53.158;6.766;2023-10-08T06:18:23;0.90;;;0.30;;
51814;SDS011;37874;53.158;6.766;2023-10-08T06:20:53;0.68;;;0.28;;
51814;SDS011;37874;53.158;6.766;2023-10-08T06:23:23;0.35;;;0.15;;
51814;SDS011;37874;53.158;6.766;2023-10-08T06:25:50;3.67;;;0.20;;
51814;SDS011;37874;53.158;6.766;2023-10-08T06:28:31;0.77;;;0.28;;
51814;SDS011;37874;53.158;6.766;2023-10-08T06:31:00;1.15;;;0.30;;
51814;SDS011;37874;53.158;6.766;2023-10-08T06:33:28;0.70;;;0.22;;
51814;SDS011;37874;53.158;6.766;2023-10-08T06:35:58;1.02;;;0.30;;
51814;SDS011;37874;53.158;6.766;2023-10-08T06:38:31;1.83;;;0.30;;
51814;SDS011;37874;53.158;6.766;2023-10-08T06:40:58;0.82;;;0.30;;
51814;SDS011;37874;53.158;6.766;2023-10-08T06:43:37;0.57;;;0.17;;
51814;SDS011;37874;53.158;6.766;2023-10-08T06:46:03;1.15;;;0.40;;
51814;SDS011;37874;53.158;6.766;2023-10-08T06:48:32;1.00;;;0.25;;
51814;SDS011;37874;53.158;6.766;2023-10-08T06:50:59;0.93;;;0.40;;
51814;SDS011;37874;53.158;6.766;2023-10-08T06:53:33;1.52;;;0.35;;
51814;SDS011;37874;53.158;6.766;2023-10-08T06:55:59;0.70;;;0.22;;
51814;SDS011;37874;53.158;6.766;2023-10-08T06:58:29;0.85;;;0.22;;
51814;SDS011;37874;53.158;6.766;2023-10-08T07:00:59;1.08;;;0.30;;
51814;SDS011;37874;53.158;6.766;2023-10-08T07:03:29;1.50;;;0.28;;
51814;SDS011;37874;53.158;6.766;2023-10-08T07:05:57;1.33;;;0.40;;
51814;SDS011;37874;53.158;6.766;2023-10-08T07:08:26;1.77;;;0.40;;
51814;SDS011;37874;53.158;6.766;2023-10-08T07:10:56;3.47;;;0.73;;
51814;SDS011;37874;53.158;6.766;2023-10-08T07:13:24;1.90;;;0.30;;
51814;SDS011;37874;53.158;6.766;2023-10-08T07:15:54;1.95;;;0.50;;
51814;SDS011;37874;53.158;6.766;2023-10-08T07:18:20;4.43;;;0.30;;
51814;SDS011;37874;53.158;6.766;2023-10-08T09:22:13;1.88;;;0.50;;
51814;SDS011;37874;53.158;6.766;2023-10-08T09:24:40;1.80;;;0.50;;
51814;SDS011;37874;53.158;6.766;2023-10-08T09:27:11;1.25;;;0.50;;
51814;SDS011;37874;53.158;6.766;2023-10-08T09:29:40;2.72;;;0.60;;
51814;SDS011;37874;53.158;6.766;2023-10-08T09:32:10;1.30;;;0.50;;
51814;SDS011;37874;53.158;6.766;2023-10-08T09:34:38;2.22;;;0.60;;
51814;SDS011;37874;53.158;6.766;2023-10-08T09:37:04;1.85;;;0.50;;
51814;SDS011;37874;53.158;6.766;2023-10-08T09:39:30;2.13;;;0.38;;
51814;SDS011;37874;53.158;6.766;2023-10-08T09:42:00;2.22;;;0.57;;
51814;SDS011;37874;53.158;6.766;2023-10-08T09:44:31;2.05;;;0.50;;
51814;SDS011;37874;53.158;6.766;2023-10-08T09:46:59;2.33;;;0.43;;
51814;SDS011;37874;53.158;6.766;2023-10-08T09:49:32;3.50;;;0.47;;
51814;SDS011;37874;53.158;6.766;2023-10-08T09:52:02;4.13;;;0.73;;
51814;SDS011;37874;53.158;6.766;2023-10-08T09:54:31;1.63;;;0.50;;
51814;SDS011;37874;53.158;6.766;2023-10-08T09:57:12;2.55;;;0.47;;
51814;SDS011;37874;53.158;6.766;2023-10-08T09:59:38;4.22;;;0.57;;
51814;SDS011;37874;53.158;6.766;2023-10-08T10:02:06;2.05;;;0.50;;
51814;SDS011;37874;53.158;6.766;2023-10-08T10:04:35;2.33;;;0.40;;
51814;SDS011;37874;53.158;6.766;2023-10-08T10:07:09;1.00;;;0.30;;
51814;SDS011;37874;53.158;6.766;2023-10-08T10:09:42;1.77;;;0.43;;
51814;SDS011;37874;53.158;6.766;2023-10-08T10:12:10;2.20;;;0.50;;
51814;SDS011;37874;53.158;6.766;2023-10-08T10:14:44;3.15;;;0.60;;
51814;SDS011;37874;53.158;6.766;2023-10-08T10:17:29;3.78;;;0.60;;
51814;SDS011;37874;53.158;6.766;2023-10-08T10:19:55;2.00;;;0.50;;
51814;SDS011;37874;53.158;6.766;2023-10-08T10:22:31;1.90;;;0.40;;
51814;SDS011;37874;53.158;6.766;2023-10-08T10:24:59;4.15;;;0.63;;
51814;SDS011;37874;53.158;6.766;2023-10-08T10:27:40;1.02;;;0.30;;
51814;SDS011;37874;53.158;6.766;2023-10-08T10:30:07;1.08;;;0.30;;
51814;SDS011;37874;53.158;6.766;2023-10-08T10:32:34;1.98;;;0.45;;
51814;SDS011;37874;53.158;6.766;2023-10-08T10:35:00;1.02;;;0.32;;
51814;SDS011;37874;53.158;6.766;2023-10-08T10:37:31;1.30;;;0.47;;
51814;SDS011;37874;53.158;6.766;2023-10-08T10:40:06;1.40;;;0.40;;
51814;SDS011;37874;53.158;6.766;2023-10-08T10:42:37;1.00;;;0.30;;
51814;SDS011;37874;53.158;6.766;2023-10-08T10:45:18;2.38;;;0.50;;
51814;SDS011;37874;53.158;6.766;2023-10-08T10:48:05;1.80;;;0.40;;
51814;SDS011;37874;53.158;6.766;2023-10-08T10:50:45;1.23;;;0.43;;
51814;SDS011;37874;53.158;6.766;2023-10-08T10:53:37;1.95;;;0.40;;
51814;SDS011;37874;53.158;6.766;2023-10-08T10:56:21;1.08;;;0.40;;
51814;SDS011;37874;53.158;6.766;2023-10-08T10:58:58;1.00;;;0.35;;
51814;SDS011;37874;53.158;6.766;2023-10-08T11:01:28;1.40;;;0.38;;
51814;SDS011;37874;53.158;6.766;2023-10-08T11:03:56;1.50;;;0.47;;
51814;SDS011;37874;53.158;6.766;2023-10-08T11:06:24;1.95;;;0.40;;
51814;SDS011;37874;53.158;6.766;2023-10-08T11:08:51;1.25;;;0.40;;
51814;SDS011;37874;53.158;6.766;2023-10-08T11:11:25;1.17;;;0.40;;
51814;SDS011;37874;53.158;6.766;2023-10-08T11:13:58;2.92;;;0.47;;
51814;SDS011;37874;53.158;6.766;2023-10-08T11:16:28;2.80;;;0.50;;
51814;SDS011;37874;53.158;6.766;2023-10-08T11:18:56;2.00;;;0.50;;
51814;SDS011;37874;53.158;6.766;2023-10-08T11:21:31;2.42;;;0.30;;
51814;SDS011;37874;53.158;6.766;2023-10-08T11:23:59;1.60;;;0.50;;
51814;SDS011;37874;53.158;6.766;2023-10-08T11:26:26;2.05;;;0.50;;
51814;SDS011;37874;53.158;6.766;2023-10-08T11:29:04;2.10;;;0.60;;
51814;SDS011;37874;53.158;6.766;2023-10-08T11:31:31;1.95;;;0.65;;
51814;SDS011;37874;53.158;6.766;2023-10-08T11:34:00;3.13;;;0.50;;
51814;SDS011;37874;53.158;6.766;2023-10-08T11:36:33;3.10;;;0.40;;
51814;SDS011;37874;53.158;6.766;2023-10-08T11:39:13;1.15;;;0.40;;
51814;SDS011;37874;53.158;6.766;2023-10-08T11:42:07;1.60;;;0.50;;
51814;SDS011;37874;53.158;6.766;2023-10-08T11:44:50;2.08;;;0.50;;
51814;SDS011;37874;53.158;6.766;2023-10-08T11:47:17;1.45;;;0.52;;
51814;SDS011;37874;53.158;6.766;2023-10-08T11:49:46;1.20;;;0.40;;
51814;SDS011;37874;53.158;6.766;2023-10-08T11:52:15;2.05;;;0.50;;
51814;SDS011;37874;53.158;6.766;2023-10-08T11:54:42;1.85;;;0.60;;
51814;SDS011;37874;53.158;6.766;2023-10-08T11:57:08;3.10;;;0.70;;
51814;SDS011;37874;53.158;6.766;2023-10-08T11:59:35;1.40;;;0.50;;
51814;SDS011;37874;53.158;6.766;2023-10-08T12:02:04;1.90;;;0.30;;
51814;SDS011;37874;53.158;6.766;2023-10-08T12:04:31;1.45;;;0.40;;
51814;SDS011;37874;53.158;6.766;2023-10-08T12:06:57;2.20;;;0.52;;
51814;SDS011;37874;53.158;6.766;2023-10-08T12:09:26;2.55;;;0.52;;
51814;SDS011;37874;53.158;6.766;2023-10-08T12:11:53;1.75;;;0.40;;
51814;SDS011;37874;53.158;6.766;2023-10-08T12:14:19;2.63;;;0.40;;
51814;SDS011;37874;53.158;6.766;2023-10-08T12:16:44;2.85;;;0.52;;
51814;SDS011;37874;53.158;6.766;2023-10-08T12:19:10;1.98;;;0.40;;
51814;SDS011;37874;53.158;6.766;2023-10-08T12:21:43;2.55;;;0.40;;
51814;SDS011;37874;53.158;6.766;2023-10-08T12:24:13;1.85;;;0.45;;
51814;SDS011;37874;53.158;6.766;2023-10-08T12:26:39;1.90;;;0.60;;
51814;SDS011;37874;53.158;6.766;2023-10-08T12:29:14;2.00;;;0.45;;
51814;SDS011;37874;53.158;6.766;2023-10-08T12:31:42;2.05;;;0.50;;
51814;SDS011;37874;53.158;6.766;2023-10-08T12:34:12;1.17;;;0.30;;
51814;SDS011;37874;53.158;6.766;2023-10-08T12:36:38;2.85;;;0.50;;
51814;SDS011;37874;53.158;6.766;2023-10-08T12:39:04;2.03;;;0.40;;
51814;SDS011;37874;53.158;6.766;2023-10-08T12:41:39;2.20;;;0.30;;
51814;SDS011;37874;53.158;6.766;2023-10-08T12:44:06;1.50;;;0.47;;
51814;SDS011;37874;53.158;6.766;2023-10-08T12:46:33;1.10;;;0.38;;
51814;SDS011;37874;53.158;6.766;2023-10-08T12:48:59;1.70;;;0.52;;
51814;SDS011;37874;53.158;6.766;2023-10-08T12:51:28;1.50;;;0.40;;
51814;SDS011;37874;53.158;6.766;2023-10-08T12:53:58;1.58;;;0.50;;
51814;SDS011;37874;53.158;6.766;2023-10-08T12:56:36;2.45;;;0.50;;
51814;SDS011;37874;53.158;6.766;2023-10-08T12:59:10;1.55;;;0.40;;
51814;SDS011;37874;53.158;6.766;2023-10-08T13:01:48;3.78;;;0.50;;
51814;SDS011;37874;53.158;6.766;2023-10-08T13:04:19;2.43;;;0.50;;
51814;SDS011;37874;53.158;6.766;2023-10-08T13:06:57;1.93;;;0.40;;
51814;SDS011;37874;53.158;6.766;2023-10-08T13:09:29;1.73;;;0.40;;
51814;SDS011;37874;53.158;6.766;2023-10-08T13:12:02;2.55;;;0.40;;
51814;SDS011;37874;53.158;6.766;2023-10-08T13:14:28;1.98;;;0.40;;
51814;SDS011;37874;53.158;6.766;2023-10-08T13:16:54;2.85;;;0.80;;
51814;SDS011;37874;53.158;6.766;2023-10-08T13:19:20;2.42;;;0.60;;
51814;SDS011;37874;53.158;6.766;2023-10-08T13:21:48;1.65;;;0.40;;
51814;SDS011;37874;53.158;6.766;2023-10-08T13:24:17;1.77;;;0.50;;
51814;SDS011;37874;53.158;6.766;2023-10-08T13:26:46;1.23;;;0.40;;
51814;SDS011;37874;53.158;6.766;2023-10-08T13:29:13;4.05;;;0.57;;
51814;SDS011;37874;53.158;6.766;2023-10-08T13:31:39;2.17;;;0.50;;
51814;SDS011;37874;53.158;6.766;2023-10-08T13:34:05;2.20;;;0.60;;
51814;SDS011;37874;53.158;6.766;2023-10-08T13:36:34;1.55;;;0.40;;
51814;SDS011;37874;53.158;6.766;2023-10-08T13:39:03;2.17;;;0.30;;
51814;SDS011;37874;53.158;6.766;2023-10-08T13:41:33;1.50;;;0.35;;
51814;SDS011;37874;53.158;6.766;2023-10-08T13:43:59;1.60;;;0.40;;
51814;SDS011;37874;53.158;6.766;2023-10-08T13:46:30;4.38;;;0.50;;
51814;SDS011;37874;53.158;6.766;2023-10-08T13:49:01;1.15;;;0.40;;
51814;SDS011;37874;53.158;6.766;2023-10-08T13:51:27;1.23;;;0.40;;
51814;SDS011;37874;53.158;6.766;2023-10-08T13:53:53;3.70;;;0.50;;
51814;SDS011;37874;53.158;6.766;2023-10-08T13:56:24;1.58;;;0.40;;
51814;SDS011;37874;53.158;6.766;2023-10-08T15:56:52;2.83;;;0.63;;
51814;SDS011;37874;53.158;6.766;2023-10-08T15:59:17;3.70;;;0.57;;
51814;SDS011;37874;53.158;6.766;2023-10-08T16:01:43;4.18;;;0.90;;
51814;SDS011;37874;53.158;6.766;2023-10-08T16:04:11;4.95;;;0.70;;
51814;SDS011;37874;53.158;6.766;2023-10-08T16:06:37;2.38;;;0.63;;
51814;SDS011;37874;53.158;6.766;2023-10-08T16:09:02;5.10;;;0.60;;
51814;SDS011;37874;53.158;6.766;2023-10-08T16:11:31;3.13;;;0.50;;
51814;SDS011;37874;53.158;6.766;2023-10-08T16:13:57;1.30;;;0.50;;
51814;SDS011;37874;53.158;6.766;2023-10-08T16:16:22;1.58;;;0.52;;
51814;SDS011;37874;53.158;6.766;2023-10-08T16:18:48;2.88;;;0.70;;
51814;SDS011;37874;53.158;6.766;2023-10-08T16:21:13;4.05;;;0.75;;
51814;SDS011;37874;53.158;6.766;2023-10-08T16:23:39;1.88;;;0.60;;
51814;SDS011;37874;53.158;6.766;2023-10-08T16:26:06;5.10;;;0.60;;
51814;SDS011;37874;53.158;6.766;2023-10-08T16:28:34;3.08;;;0.70;;
51814;SDS011;37874;53.158;6.766;2023-10-08T16:31:00;1.45;;;0.52;;
51814;SDS011;37874;53.158;6.766;2023-10-08T16:33:25;2.15;;;0.70;;
51814;SDS011;37874;53.158;6.766;2023-10-08T16:35:54;3.00;;;0.60;;
51814;SDS011;37874;53.158;6.766;2023-10-08T16:38:21;1.95;;;0.52;;
51814;SDS011;37874;53.158;6.766;2023-10-08T16:40:46;2.60;;;0.82;;
51814;SDS011;37874;53.158;6.766;2023-10-08T16:43:12;2.63;;;0.50;;
51814;SDS011;37874;53.158;6.766;2023-10-08T16:45:44;2.63;;;0.70;;
51814;SDS011;37874;53.158;6.766;2023-10-08T16:48:11;1.42;;;0.55;;
51814;SDS011;37874;53.158;6.766;2023-10-08T16:50:37;3.90;;;0.63;;
51814;SDS011;37874;53.158;6.766;2023-10-08T16:53:03;2.28;;;0.70;;
51814;SDS011;37874;53.158;6.766;2023-10-08T16:55:29;2.50;;;0.82;;
51814;SDS011;37874;53.158;6.766;2023-10-08T16:57:56;1.65;;;0.52;;
51814;SDS011;37874;53.158;6.766;2023-10-08T17:00:22;3.25;;;0.43;;
51814;SDS011;37874;53.158;6.766;2023-10-08T17:02:51;1.67;;;0.50;;
51814;SDS011;37874;53.158;6.766;2023-10-08T17:05:16;1.70;;;0.50;;
51814;SDS011;37874;53.158;6.766;2023-10-08T17:07:42;2.55;;;0.65;;
51814;SDS011;37874;53.158;6.766;2023-10-08T17:10:09;2.10;;;0.57;;
51814;SDS011;37874;53.158;6.766;2023-10-08T17:12:34;2.00;;;0.60;;
51814;SDS011;37874;53.158;6.766;2023-10-08T17:15:01;2.08;;;0.50;;
51814;SDS011;37874;53.158;6.766;2023-10-08T17:17:30;1.17;;;0.52;;
51814;SDS011;37874;53.158;6.766;2023-10-08T17:19:56;1.67;;;0.43;;
51814;SDS011;37874;53.158;6.766;2023-10-08T17:22:22;1.45;;;0.50;;
51814;SDS011;37874;53.158;6.766;2023-10-08T17:24:50;2.20;;;0.57;;
51814;SDS011;37874;53.158;6.766;2023-10-08T17:27:15;1.55;;;0.65;;
51814;SDS011;37874;53.158;6.766;2023-10-08T17:29:41;1.58;;;0.40;;
51814;SDS011;37874;53.158;6.766;2023-10-08T17:32:07;2.40;;;0.60;;
51814;SDS011;37874;53.158;6.766;2023-10-08T17:34:32;1.85;;;0.50;;
51814;SDS011;37874;53.158;6.766;2023-10-08T17:36:58;1.85;;;0.50;;
51814;SDS011;37874;53.158;6.766;2023-10-08T17:39:24;2.55;;;0.70;;
51814;SDS011;37874;53.158;6.766;2023-10-08T17:41:50;1.27;;;0.52;;
51814;SDS011;37874;53.158;6.766;2023-10-08T17:44:16;2.42;;;0.60;;
51814;SDS011;37874;53.158;6.766;2023-10-08T17:46:44;10.95;;;0.85;;
51814;SDS011;37874;53.158;6.766;2023-10-08T17:49:10;2.95;;;0.60;;
51814;SDS011;37874;53.158;6.766;2023-10-08T17:51:37;2.42;;;0.50;;
51814;SDS011;37874;53.158;6.766;2023-10-08T17:54:05;2.28;;;0.60;;
51814;SDS011;37874;53.158;6.766;2023-10-08T17:56:37;3.05;;;0.70;;
51814;SDS011;37874;53.158;6.766;2023-10-08T17:59:04;2.65;;;0.63;;
51814;SDS011;37874;53.158;6.766;2023-10-08T18:01:35;1.60;;;0.45;;
51814;SDS011;37874;53.158;6.766;2023-10-08T18:04:05;1.50;;;0.60;;
51814;SDS011;37874;53.158;6.766;2023-10-08T18:06:38;2.58;;;0.70;;
51814;SDS011;37874;53.158;6.766;2023-10-08T18:09:06;2.60;;;0.70;;
51814;SDS011;37874;53.158;6.766;2023-10-08T18:11:35;2.92;;;0.57;;
51814;SDS011;37874;53.158;6.766;2023-10-08T18:14:10;2.42;;;0.65;;
51814;SDS011;37874;53.158;6.766;2023-10-08T18:16:39;2.42;;;0.93;;
51814;SDS011;37874;53.158;6.766;2023-10-08T18:19:06;5.47;;;0.80;;
51814;SDS011;37874;53.158;6.766;2023-10-08T18:21:35;3.35;;;0.80;;
51814;SDS011;37874;53.158;6.766;2023-10-08T18:24:06;4.03;;;0.75;;
51814;SDS011;37874;53.158;6.766;2023-10-08T18:26:37;3.25;;;0.88;;
51814;SDS011;37874;53.158;6.766;2023-10-08T18:29:09;3.63;;;0.77;;
51814;SDS011;37874;53.158;6.766;2023-10-08T18:31:38;3.35;;;0.90;;
51814;SDS011;37874;53.158;6.766;2023-10-08T18:34:04;6.13;;;0.93;;
51814;SDS011;37874;53.158;6.766;2023-10-08T18:36:30;4.70;;;0.93;;
51814;SDS011;37874;53.158;6.766;2023-10-08T18:38:56;3.20;;;0.70;;
51814;SDS011;37874;53.158;6.766;2023-10-08T18:41:23;4.35;;;1.33;;
51814;SDS011;37874;53.158;6.766;2023-10-08T18:43:50;5.90;;;1.27;;
51814;SDS011;37874;53.158;6.766;2023-10-08T18:46:16;5.07;;;1.15;;
51814;SDS011;37874;53.158;6.766;2023-10-08T18:48:42;2.85;;;0.75;;
51814;SDS011;37874;53.158;6.766;2023-10-08T18:51:08;3.85;;;0.95;;
51814;SDS011;37874;53.158;6.766;2023-10-08T18:53:38;2.95;;;1.02;;
51814;SDS011;37874;53.158;6.766;2023-10-08T18:56:08;5.50;;;0.93;;
51814;SDS011;37874;53.158;6.766;2023-10-08T18:58:39;3.92;;;0.90;;
51814;SDS011;37874;53.158;6.766;2023-10-08T19:01:07;3.08;;;1.10;;
51814;SDS011;37874;53.158;6.766;2023-10-08T19:03:33;4.35;;;1.10;;
51814;SDS011;37874;53.158;6.766;2023-10-08T19:06:00;3.65;;;0.80;;
51814;SDS011;37874;53.158;6.766;2023-10-08T19:08:27;3.55;;;1.00;;
51814;SDS011;37874;53.158;6.766;2023-10-08T19:10:52;6.18;;;1.15;;
51814;SDS011;37874;53.158;6.766;2023-10-08T19:13:19;4.55;;;0.90;;
51814;SDS011;37874;53.158;6.766;2023-10-08T19:15:48;4.05;;;0.85;;
51814;SDS011;37874;53.158;6.766;2023-10-08T19:18:15;3.30;;;0.82;;
51814;SDS011;37874;53.158;6.766;2023-10-08T19:20:43;3.15;;;0.90;;